sensor_id;sensor_type;location;lat;lon;timestamp;P1;durP1;ratioP1;P2;durP2;ratioP2
69170;SDS011;56279;47.902;12.308;2022-08-19T05:10:26;5.30;;;3.00;;
69170;SDS011;56279;47.902;12.308;2022-08-19T05:12:31;6.20;;;3.13;;
69170;SDS011;56279;47.902;12.308;2022-08-19T05:14:36;5.60;;;2.95;;
69170;SDS011;56279;47.902;12.308;2022-08-19T05:16:37;5.10;;;2.80;;
69170;SDS011;56279;47.902;12.308;2022-08-19T05:18:40;6.60;;;3.05;;
69170;SDS011;56279;47.902;12.308;2022-08-19T05:21:04;5.53;;;2.90;;
69170;SDS011;56279;47.902;12.308;2022-08-19T05:23:26;5.47;;;3.38;;
69170;SDS011;56279;47.902;12.308;2022-08-19T05:25:27;6.97;;;3.38;;
69170;SDS011;56279;47.902;12.308;2022-08-19T05:27:29;6.03;;;3.22;;
69170;SDS011;56279;47.902;12.308;2022-08-19T05:29:31;6.80;;;3.88;;
69170;SDS011;56279;47.902;12.308;2022-08-19T05:31:45;7.50;;;3.30;;
69170;SDS011;56279;47.902;12.308;2022-08-19T05:34:10;5.47;;;3.17;;
69170;SDS011;56279;47.902;12.308;2022-08-19T05:36:28;6.22;;;3.35;;
69170;SDS011;56279;47.902;12.308;2022-08-19T05:38:35;5.43;;;3.53;;
69170;SDS011;56279;47.902;12.308;2022-08-19T05:44:39;12.43;;;3.63;;
69170;SDS011;56279;47.902;12.308;2022-08-19T05:46:49;6.85;;;4.22;;
69170;SDS011;56279;47.902;12.308;2022-08-19T05:48:54;6.00;;;3.58;;
69170;SDS011;56279;47.902;12.308;2022-08-19T05:50:57;6.68;;;3.13;;
69170;SDS011;56279;47.902;12.308;2022-08-19T05:53:00;5.80;;;3.13;;
69170;SDS011;56279;47.902;12.308;2022-08-19T05:55:07;6.37;;;2.97;;
69170;SDS011;56279;47.902;12.308;2022-08-19T05:57:11;5.25;;;2.78;;
69170;SDS011;56279;47.902;12.308;2022-08-19T05:59:15;5.50;;;2.60;;
69170;SDS011;56279;47.902;12.308;2022-08-19T06:01:20;5.30;;;2.63;;
69170;SDS011;56279;47.902;12.308;2022-08-19T06:03:22;5.25;;;2.83;;
69170;SDS011;56279;47.902;12.308;2022-08-19T06:05:31;4.67;;;2.43;;
69170;SDS011;56279;47.902;12.308;2022-08-19T06:07:37;5.00;;;2.75;;
69170;SDS011;56279;47.902;12.308;2022-08-19T06:09:44;5.03;;;2.70;;
69170;SDS011;56279;47.902;12.308;2022-08-19T06:11:47;4.72;;;2.65;;
69170;SDS011;56279;47.902;12.308;2022-08-19T06:14:00;5.05;;;2.85;;
69170;SDS011;56279;47.902;12.308;2022-08-19T06:16:05;6.23;;;2.57;;
69170;SDS011;56279;47.902;12.308;2022-08-19T06:18:09;5.32;;;2.80;;
69170;SDS011;56279;47.902;12.308;2022-08-19T06:20:18;5.45;;;2.85;;
69170;SDS011;56279;47.902;12.308;2022-08-19T06:22:21;6.68;;;2.70;;
69170;SDS011;56279;47.902;12.308;2022-08-19T06:24:28;5.07;;;2.85;;
69170;SDS011;56279;47.902;12.308;2022-08-19T06:43:32;6.22;;;3.13;;
69170;SDS011;56279;47.902;12.308;2022-08-19T06:45:53;6.22;;;3.25;;
69170;SDS011;56279;47.902;12.308;2022-08-19T06:50:26;6.93;;;3.00;;
69170;SDS011;56279;47.902;12.308;2022-08-19T06:55:41;6.05;;;3.53;;
69170;SDS011;56279;47.902;12.308;2022-08-19T06:57:47;8.38;;;3.92;;
69170;SDS011;56279;47.902;12.308;2022-08-19T06:59:57;6.40;;;3.28;;
69170;SDS011;56279;47.902;12.308;2022-08-19T07:02:30;6.45;;;3.63;;
69170;SDS011;56279;47.902;12.308;2022-08-19T07:12:13;6.05;;;3.38;;
69170;SDS011;56279;47.902;12.308;2022-08-19T07:14:18;5.50;;;3.20;;
69170;SDS011;56279;47.902;12.308;2022-08-19T07:16:27;6.70;;;3.40;;
69170;SDS011;56279;47.902;12.308;2022-08-19T07:18:37;6.55;;;3.40;;
69170;SDS011;56279;47.902;12.308;2022-08-19T07:20:39;6.60;;;3.80;;
69170;SDS011;56279;47.902;12.308;2022-08-19T07:22:49;6.82;;;3.60;;
69170;SDS011;56279;47.902;12.308;2022-08-19T07:24:51;7.00;;;3.17;;
69170;SDS011;56279;47.902;12.308;2022-08-19T07:26:57;6.47;;;3.33;;
69170;SDS011;56279;47.902;12.308;2022-08-19T07:29:06;5.43;;;3.45;;
69170;SDS011;56279;47.902;12.308;2022-08-19T07:31:34;6.82;;;4.00;;
69170;SDS011;56279;47.902;12.308;2022-08-19T07:34:04;7.80;;;3.78;;
69170;SDS011;56279;47.902;12.308;2022-08-19T07:36:15;6.22;;;3.50;;
69170;SDS011;56279;47.902;12.308;2022-08-19T07:38:26;5.30;;;3.20;;
69170;SDS011;56279;47.902;12.308;2022-08-19T07:43:03;6.28;;;3.53;;
69170;SDS011;56279;47.902;12.308;2022-08-19T08:43:48;7.00;;;3.97;;
69170;SDS011;56279;47.902;12.308;2022-08-19T16:32:47;4.65;;;2.55;;
69170;SDS011;56279;47.902;12.308;2022-08-19T16:51:07;3.77;;;1.93;;
69170;SDS011;56279;47.902;12.308;2022-08-19T16:53:13;4.50;;;2.45;;
69170;SDS011;56279;47.902;12.308;2022-08-19T16:55:17;3.65;;;2.00;;
69170;SDS011;56279;47.902;12.308;2022-08-19T16:57:22;4.32;;;2.35;;
69170;SDS011;56279;47.902;12.308;2022-08-19T16:59:27;4.50;;;2.50;;
69170;SDS011;56279;47.902;12.308;2022-08-19T17:01:39;4.83;;;3.23;;
69170;SDS011;56279;47.902;12.308;2022-08-19T17:03:51;3.35;;;1.90;;
69170;SDS011;56279;47.902;12.308;2022-08-19T17:16:05;3.30;;;1.70;;
69170;SDS011;56279;47.902;12.308;2022-08-19T23:50:48;9.32;;;5.15;;
69170;SDS011;56279;47.902;12.308;2022-08-19T23:52:53;8.15;;;5.07;;
69170;SDS011;56279;47.902;12.308;2022-08-19T23:55:00;6.93;;;4.57;;
69170;SDS011;56279;47.902;12.308;2022-08-19T23:57:12;7.38;;;4.57;;
69170;SDS011;56279;47.902;12.308;2022-08-19T23:59:26;6.88;;;4.10;;
